createdAt,value
2023-05-05T04:22:43.362Z,6.40
2023-05-05T04:25:10.877Z,7.53
2023-05-05T04:27:37.833Z,6.75
2023-05-05T04:30:05.752Z,8.45
2023-05-05T04:32:32.852Z,8.07
2023-05-05T04:34:59.954Z,7.43
2023-05-05T04:37:27.087Z,7.55
2023-05-05T04:39:54.200Z,8.32
2023-05-05T04:42:21.268Z,8.63
2023-05-05T04:44:48.239Z,9.02
2023-05-05T04:47:15.176Z,8.75
2023-05-05T04:49:42.510Z,8.80
2023-05-05T04:52:09.441Z,9.05
2023-05-05T04:54:37.514Z,8.65
2023-05-05T04:57:09.018Z,8.90
2023-05-05T04:59:36.495Z,8.15
2023-05-05T05:02:03.524Z,8.25
2023-05-05T05:04:30.416Z,7.78
2023-05-05T05:06:59.332Z,8.55
2023-05-05T05:09:26.323Z,7.75
2023-05-05T05:11:53.255Z,8.20
2023-05-05T05:14:20.068Z,8.50
2023-05-05T05:16:51.228Z,7.72
2023-05-05T05:19:18.425Z,8.48
2023-05-05T05:21:45.253Z,8.10
2023-05-05T05:24:12.317Z,7.95
2023-05-05T05:26:39.581Z,8.68
2023-05-05T05:29:06.612Z,8.10
2023-05-05T05:31:34.575Z,8.30
2023-05-05T05:34:01.648Z,8.60
2023-05-05T05:36:28.576Z,8.80
2023-05-05T05:38:55.558Z,9.35
2023-05-05T05:41:22.645Z,7.50
2023-05-05T05:43:51.464Z,7.53
2023-05-05T05:46:19.340Z,7.30
2023-05-05T05:48:46.531Z,8.55
2023-05-05T05:51:13.394Z,8.80
2023-05-05T05:53:40.275Z,8.88
2023-05-05T05:56:07.679Z,8.73
2023-05-05T05:58:34.547Z,9.18
2023-05-05T06:01:01.423Z,9.23
2023-05-05T06:03:28.379Z,8.60
2023-05-05T06:05:55.901Z,8.38
2023-05-05T06:08:24.966Z,7.97
2023-05-05T06:10:52.285Z,8.60
2023-05-05T06:13:19.475Z,8.15
2023-05-05T06:15:46.630Z,8.30
2023-05-05T06:18:13.550Z,8.13
2023-05-05T06:20:40.549Z,7.85
2023-05-05T06:23:07.769Z,7.85
2023-05-05T06:25:34.793Z,7.72
2023-05-05T06:28:02.037Z,6.88
2023-05-05T06:30:29.155Z,6.40
2023-05-05T06:32:56.155Z,7.03
2023-05-05T06:35:23.174Z,7.30
2023-05-05T06:37:50.159Z,6.25
2023-05-05T06:40:17.089Z,6.40
2023-05-05T06:42:44.949Z,5.63
2023-05-05T06:45:12.586Z,5.65
2023-05-05T06:47:39.506Z,6.28
2023-05-05T06:50:08.820Z,6.18
2023-05-05T06:52:36.143Z,5.88
2023-05-05T06:55:04.615Z,6.10
2023-05-05T06:57:31.609Z,6.15
2023-05-05T06:59:58.718Z,5.85
2023-05-05T07:02:26.967Z,7.03
2023-05-05T07:04:55.456Z,6.18
2023-05-05T07:07:22.803Z,6.60
2023-05-05T07:09:49.654Z,6.53
2023-05-05T07:12:16.803Z,6.80
2023-05-05T07:14:43.851Z,6.57
2023-05-05T07:17:11.765Z,6.70
2023-05-05T07:19:38.728Z,6.60
2023-05-05T07:22:05.538Z,6.63
2023-05-05T07:24:32.486Z,6.40
2023-05-05T07:26:59.457Z,6.50
2023-05-05T07:29:26.778Z,6.65
2023-05-05T07:31:53.989Z,5.57
2023-05-05T07:34:21.037Z,6.03
2023-05-05T07:36:48.091Z,6.10
2023-05-05T07:39:16.344Z,6.20
2023-05-05T07:41:43.450Z,6.63
2023-05-05T07:44:10.238Z,6.35
2023-05-05T07:46:37.582Z,5.97
2023-05-05T07:49:06.409Z,5.78
2023-05-05T07:51:34.621Z,6.05
2023-05-05T07:54:01.954Z,6.55
2023-05-05T07:56:29.007Z,6.85
2023-05-05T07:58:59.233Z,8.10
2023-05-05T08:01:26.227Z,7.40
2023-05-05T08:03:54.369Z,7.65
2023-05-05T08:06:23.331Z,7.43
2023-05-05T08:08:50.308Z,6.35
2023-05-05T08:11:17.827Z,5.72
2023-05-05T08:13:44.859Z,5.93
2023-05-05T08:16:12.972Z,5.10
2023-05-05T08:18:40.153Z,4.35
2023-05-05T08:21:08.799Z,4.10
2023-05-05T08:23:37.101Z,3.90
2023-05-05T08:26:06.261Z,4.78
2023-05-05T08:28:37.466Z,4.90
2023-05-05T08:31:05.826Z,5.00
2023-05-05T08:33:33.201Z,5.18
2023-05-05T08:36:00.466Z,5.05
2023-05-05T08:38:27.524Z,4.68
2023-05-05T08:40:54.808Z,4.68
2023-05-05T08:43:23.797Z,5.38
2023-05-05T08:45:52.235Z,5.75
2023-05-05T08:48:22.867Z,4.43
2023-05-05T08:51:01.954Z,4.03
2023-05-05T08:53:57.711Z,5.63
2023-05-05T08:56:38.483Z,5.00
2023-05-05T08:59:05.789Z,4.43
2023-05-05T09:01:33.943Z,4.20
2023-05-05T09:04:01.337Z,3.80
2023-05-05T09:06:28.993Z,3.35
2023-05-05T09:08:58.967Z,2.80
2023-05-05T09:11:27.973Z,3.10
2023-05-05T09:13:55.904Z,3.05
2023-05-05T09:16:23.198Z,2.65
2023-05-05T09:18:50.109Z,2.60
2023-05-05T09:21:25.963Z,2.38
2023-05-05T09:24:09.427Z,2.70
2023-05-05T09:26:43.501Z,2.15
2023-05-05T09:29:17.669Z,1.77
2023-05-05T09:31:44.783Z,1.75
2023-05-05T09:34:16.840Z,1.95
2023-05-05T09:36:48.892Z,1.85
2023-05-05T09:39:20.554Z,2.13
2023-05-05T09:41:47.684Z,1.90
2023-05-05T09:44:17.833Z,1.77
2023-05-05T09:46:53.238Z,1.60
2023-05-05T09:49:26.825Z,1.35
2023-05-05T09:51:55.284Z,1.65
2023-05-05T09:54:28.763Z,1.40
2023-05-05T09:56:58.424Z,1.80
2023-05-05T09:59:25.659Z,1.90
2023-05-05T10:01:52.837Z,1.60
2023-05-05T10:04:30.994Z,1.20
2023-05-05T10:06:59.157Z,1.50
2023-05-05T10:09:27.539Z,1.50
2023-05-05T10:11:59.809Z,1.45
2023-05-05T10:14:27.965Z,1.52
2023-05-05T10:16:55.834Z,1.60
2023-05-05T10:19:25.572Z,1.30
2023-05-05T10:21:59.811Z,1.15
2023-05-05T10:24:34.799Z,1.27
2023-05-05T10:27:08.914Z,1.27
2023-05-05T10:29:40.326Z,1.50
2023-05-05T10:35:23.673Z,1.40
2023-05-05T10:37:51.194Z,1.90
2023-05-05T10:40:18.237Z,1.70
2023-05-05T10:42:45.935Z,1.67
2023-05-05T10:45:13.034Z,1.90
2023-05-05T10:47:40.917Z,2.00
2023-05-05T10:50:22.008Z,2.40
2023-05-05T10:53:20.839Z,2.40
2023-05-05T10:56:10.568Z,2.42
2023-05-05T10:58:55.535Z,2.70
2023-05-05T11:01:35.786Z,2.83
2023-05-05T11:04:23.734Z,2.30
2023-05-05T11:07:24.179Z,2.42
2023-05-05T11:10:07.810Z,1.90
2023-05-05T11:13:03.232Z,1.48
2023-05-05T11:15:30.508Z,1.60
2023-05-05T11:18:05.857Z,1.20
2023-05-05T11:20:40.349Z,0.85
2023-05-05T11:23:07.527Z,1.15
2023-05-05T11:25:39.751Z,1.23
2023-05-05T11:28:14.622Z,1.50
2023-05-05T11:30:57.579Z,1.38
2023-05-05T11:33:40.832Z,1.83
2023-05-05T11:36:09.841Z,1.40
2023-05-05T11:38:39.246Z,1.40
2023-05-05T11:41:22.297Z,1.60
2023-05-05T11:43:49.064Z,1.70
2023-05-05T11:46:17.316Z,2.00
2023-05-05T11:48:48.107Z,1.52
2023-05-05T11:51:16.967Z,1.20
2023-05-05T11:53:47.058Z,1.40
2023-05-05T11:56:22.411Z,1.35
2023-05-05T11:59:08.612Z,1.10
2023-05-05T12:01:42.320Z,1.00
2023-05-05T12:04:13.272Z,1.10
2023-05-05T12:09:15.465Z,1.30
2023-05-05T12:11:54.642Z,1.10
2023-05-05T12:14:24.392Z,1.25
